sensor_id;sensor_type;location;lat;lon;timestamp;temperature;humidity
24162;DHT22;12318;51.262;7.066;2023-02-04T00:00:45;7.50;99.90
24162;DHT22;12318;51.262;7.066;2023-02-04T00:03:15;7.50;99.90
24162;DHT22;12318;51.262;7.066;2023-02-04T00:05:42;7.50;99.90
24162;DHT22;12318;51.262;7.066;2023-02-04T00:08:08;7.60;99.90
24162;DHT22;12318;51.262;7.066;2023-02-04T00:10:35;7.50;99.90
24162;DHT22;12318;51.262;7.066;2023-02-04T00:13:02;7.50;99.90
24162;DHT22;12318;51.262;7.066;2023-02-04T00:15:28;7.50;99.90
24162;DHT22;12318;51.262;7.066;2023-02-04T00:17:54;7.60;99.90
24162;DHT22;12318;51.262;7.066;2023-02-04T00:20:20;7.60;99.90
24162;DHT22;12318;51.262;7.066;2023-02-04T00:22:46;7.50;99.90
24162;DHT22;12318;51.262;7.066;2023-02-04T00:25:12;7.50;99.90
24162;DHT22;12318;51.262;7.066;2023-02-04T00:27:38;7.50;99.90
24162;DHT22;12318;51.262;7.066;2023-02-04T00:30:04;7.40;99.90
24162;DHT22;12318;51.262;7.066;2023-02-04T00:32:30;7.40;99.90
24162;DHT22;12318;51.262;7.066;2023-02-04T00:34:56;7.40;99.90
24162;DHT22;12318;51.262;7.066;2023-02-04T00:37:22;7.40;99.90
24162;DHT22;12318;51.262;7.066;2023-02-04T00:39:48;7.40;99.90
24162;DHT22;12318;51.262;7.066;2023-02-04T00:42:14;7.40;99.90
24162;DHT22;12318;51.262;7.066;2023-02-04T00:44:40;7.40;99.90
24162;DHT22;12318;51.262;7.066;2023-02-04T00:47:06;7.40;99.90
24162;DHT22;12318;51.262;7.066;2023-02-04T00:49:33;7.40;99.90
24162;DHT22;12318;51.262;7.066;2023-02-04T00:51:59;7.40;99.90
24162;DHT22;12318;51.262;7.066;2023-02-04T00:54:25;7.40;99.90
24162;DHT22;12318;51.262;7.066;2023-02-04T00:56:50;7.40;99.90
24162;DHT22;12318;51.262;7.066;2023-02-04T00:59:16;7.40;99.90
24162;DHT22;12318;51.262;7.066;2023-02-04T01:01:42;7.40;99.90
24162;DHT22;12318;51.262;7.066;2023-02-04T01:04:08;7.40;99.90
24162;DHT22;12318;51.262;7.066;2023-02-04T01:06:34;7.40;99.90
24162;DHT22;12318;51.262;7.066;2023-02-04T01:09:01;7.50;99.90
24162;DHT22;12318;51.262;7.066;2023-02-04T01:11:27;7.40;99.90
24162;DHT22;12318;51.262;7.066;2023-02-04T01:13:53;7.40;99.90
24162;DHT22;12318;51.262;7.066;2023-02-04T01:16:19;7.40;99.90
24162;DHT22;12318;51.262;7.066;2023-02-04T01:18:45;7.40;99.90
24162;DHT22;12318;51.262;7.066;2023-02-04T01:21:11;7.40;99.90
24162;DHT22;12318;51.262;7.066;2023-02-04T01:23:37;7.30;99.90
24162;DHT22;12318;51.262;7.066;2023-02-04T01:26:03;7.30;99.90
24162;DHT22;12318;51.262;7.066;2023-02-04T01:28:29;7.40;99.90
24162;DHT22;12318;51.262;7.066;2023-02-04T01:30:55;7.40;99.90
24162;DHT22;12318;51.262;7.066;2023-02-04T01:33:21;7.40;99.90
24162;DHT22;12318;51.262;7.066;2023-02-04T01:35:47;7.40;99.90
24162;DHT22;12318;51.262;7.066;2023-02-04T01:38:13;7.40;99.90
24162;DHT22;12318;51.262;7.066;2023-02-04T01:40:40;7.40;99.90
24162;DHT22;12318;51.262;7.066;2023-02-04T01:43:06;7.40;99.90
24162;DHT22;12318;51.262;7.066;2023-02-04T01:45:32;7.40;99.90
24162;DHT22;12318;51.262;7.066;2023-02-04T01:48:04;7.40;99.90
24162;DHT22;12318;51.262;7.066;2023-02-04T01:50:30;7.40;99.90
24162;DHT22;12318;51.262;7.066;2023-02-04T01:52:56;7.30;99.90
24162;DHT22;12318;51.262;7.066;2023-02-04T01:55:26;7.30;99.90
24162;DHT22;12318;51.262;7.066;2023-02-04T01:57:52;7.30;99.90
24162;DHT22;12318;51.262;7.066;2023-02-04T02:00:38;7.30;99.90
24162;DHT22;12318;51.262;7.066;2023-02-04T02:03:05;7.30;99.90
24162;DHT22;12318;51.262;7.066;2023-02-04T02:05:45;7.40;99.90
24162;DHT22;12318;51.262;7.066;2023-02-04T02:08:12;7.40;99.90
24162;DHT22;12318;51.262;7.066;2023-02-04T02:10:40;7.30;99.90
24162;DHT22;12318;51.262;7.066;2023-02-04T02:13:09;7.30;99.90
24162;DHT22;12318;51.262;7.066;2023-02-04T02:15:35;7.30;99.90
24162;DHT22;12318;51.262;7.066;2023-02-04T02:18:02;7.30;99.90
24162;DHT22;12318;51.262;7.066;2023-02-04T02:20:28;7.40;99.90
24162;DHT22;12318;51.262;7.066;2023-02-04T02:25:37;7.30;99.90
24162;DHT22;12318;51.262;7.066;2023-02-04T02:28:10;7.30;99.90
24162;DHT22;12318;51.262;7.066;2023-02-04T02:30:36;7.30;99.90
24162;DHT22;12318;51.262;7.066;2023-02-04T02:33:02;7.30;99.90
24162;DHT22;12318;51.262;7.066;2023-02-04T02:35:28;7.40;99.90
24162;DHT22;12318;51.262;7.066;2023-02-04T02:37:54;7.40;99.90
24162;DHT22;12318;51.262;7.066;2023-02-04T02:40:20;7.30;99.90
24162;DHT22;12318;51.262;7.066;2023-02-04T02:42:48;7.30;99.90
24162;DHT22;12318;51.262;7.066;2023-02-04T02:45:24;7.30;99.90
24162;DHT22;12318;51.262;7.066;2023-02-04T02:47:50;7.20;99.90
24162;DHT22;12318;51.262;7.066;2023-02-04T02:50:20;7.10;99.90
24162;DHT22;12318;51.262;7.066;2023-02-04T02:52:46;7.10;99.90
24162;DHT22;12318;51.262;7.066;2023-02-04T02:55:17;7.20;99.90
24162;DHT22;12318;51.262;7.066;2023-02-04T02:57:48;7.20;99.90
24162;DHT22;12318;51.262;7.066;2023-02-04T03:00:25;7.10;99.90
24162;DHT22;12318;51.262;7.066;2023-02-04T03:03:07;7.10;99.90
24162;DHT22;12318;51.262;7.066;2023-02-04T03:05:41;7.10;99.90
24162;DHT22;12318;51.262;7.066;2023-02-04T03:08:09;7.20;99.90
24162;DHT22;12318;51.262;7.066;2023-02-04T03:10:36;7.20;99.90
24162;DHT22;12318;51.262;7.066;2023-02-04T03:13:03;7.20;99.90
24162;DHT22;12318;51.262;7.066;2023-02-04T03:15:29;7.20;99.90
24162;DHT22;12318;51.262;7.066;2023-02-04T03:17:56;7.20;99.90
24162;DHT22;12318;51.262;7.066;2023-02-04T03:20:28;7.10;99.90
24162;DHT22;12318;51.262;7.066;2023-02-04T03:22:55;7.20;99.90
24162;DHT22;12318;51.262;7.066;2023-02-04T03:25:21;7.10;99.90
24162;DHT22;12318;51.262;7.066;2023-02-04T03:27:59;7.10;99.90
24162;DHT22;12318;51.262;7.066;2023-02-04T03:30:26;7.10;99.90
24162;DHT22;12318;51.262;7.066;2023-02-04T03:32:52;7.10;99.90
24162;DHT22;12318;51.262;7.066;2023-02-04T03:35:18;7.10;99.90
24162;DHT22;12318;51.262;7.066;2023-02-04T03:37:44;7.10;99.90
24162;DHT22;12318;51.262;7.066;2023-02-04T03:40:11;7.10;99.90
24162;DHT22;12318;51.262;7.066;2023-02-04T03:42:36;7.10;99.90
24162;DHT22;12318;51.262;7.066;2023-02-04T03:45:03;7.00;99.90
24162;DHT22;12318;51.262;7.066;2023-02-04T03:47:28;7.10;99.90
24162;DHT22;12318;51.262;7.066;2023-02-04T03:49:55;7.00;99.90
24162;DHT22;12318;51.262;7.066;2023-02-04T03:52:20;7.10;99.90
24162;DHT22;12318;51.262;7.066;2023-02-04T03:54:46;7.10;99.90
24162;DHT22;12318;51.262;7.066;2023-02-04T03:57:12;7.00;99.90
24162;DHT22;12318;51.262;7.066;2023-02-04T03:59:41;7.00;99.90
24162;DHT22;12318;51.262;7.066;2023-02-04T04:02:07;7.00;99.90
24162;DHT22;12318;51.262;7.066;2023-02-04T04:04:33;7.00;99.90
24162;DHT22;12318;51.262;7.066;2023-02-04T04:06:58;7.00;99.90
24162;DHT22;12318;51.262;7.066;2023-02-04T04:09:24;7.00;99.90
24162;DHT22;12318;51.262;7.066;2023-02-04T04:11:50;7.00;99.90
24162;DHT22;12318;51.262;7.066;2023-02-04T04:14:16;7.00;99.90
24162;DHT22;12318;51.262;7.066;2023-02-04T04:16:41;7.00;99.90
24162;DHT22;12318;51.262;7.066;2023-02-04T04:19:07;7.00;99.90
24162;DHT22;12318;51.262;7.066;2023-02-04T04:21:33;7.00;99.90
24162;DHT22;12318;51.262;7.066;2023-02-04T04:23:59;6.90;99.90
24162;DHT22;12318;51.262;7.066;2023-02-04T04:26:25;7.00;99.90
24162;DHT22;12318;51.262;7.066;2023-02-04T04:28:50;6.90;99.90
24162;DHT22;12318;51.262;7.066;2023-02-04T04:31:16;6.90;99.90
24162;DHT22;12318;51.262;7.066;2023-02-04T04:33:42;6.90;99.90
24162;DHT22;12318;51.262;7.066;2023-02-04T04:36:08;6.90;99.90
24162;DHT22;12318;51.262;7.066;2023-02-04T04:38:34;6.90;99.90
24162;DHT22;12318;51.262;7.066;2023-02-04T04:41:00;6.90;99.90
24162;DHT22;12318;51.262;7.066;2023-02-04T04:43:25;6.90;99.90
24162;DHT22;12318;51.262;7.066;2023-02-04T04:45:51;6.90;99.90
24162;DHT22;12318;51.262;7.066;2023-02-04T04:48:17;6.90;99.90
24162;DHT22;12318;51.262;7.066;2023-02-04T04:50:43;6.90;99.90
24162;DHT22;12318;51.262;7.066;2023-02-04T04:53:09;7.00;99.90
24162;DHT22;12318;51.262;7.066;2023-02-04T04:55:39;7.00;99.90
24162;DHT22;12318;51.262;7.066;2023-02-04T04:58:06;7.00;99.90
24162;DHT22;12318;51.262;7.066;2023-02-04T05:00:32;7.00;99.90
24162;DHT22;12318;51.262;7.066;2023-02-04T05:02:58;7.00;99.90
24162;DHT22;12318;51.262;7.066;2023-02-04T05:05:24;7.00;99.90
24162;DHT22;12318;51.262;7.066;2023-02-04T05:07:50;7.00;99.90
24162;DHT22;12318;51.262;7.066;2023-02-04T05:10:18;7.00;99.90
24162;DHT22;12318;51.262;7.066;2023-02-04T05:12:44;6.90;99.90
24162;DHT22;12318;51.262;7.066;2023-02-04T05:15:09;7.00;99.90
24162;DHT22;12318;51.262;7.066;2023-02-04T05:17:35;6.90;99.90
24162;DHT22;12318;51.262;7.066;2023-02-04T05:20:01;6.90;99.90
24162;DHT22;12318;51.262;7.066;2023-02-04T05:22:27;6.90;99.90
24162;DHT22;12318;51.262;7.066;2023-02-04T05:24:53;7.00;99.90
24162;DHT22;12318;51.262;7.066;2023-02-04T05:27:19;7.00;99.90
24162;DHT22;12318;51.262;7.066;2023-02-04T05:29:44;7.00;99.90
24162;DHT22;12318;51.262;7.066;2023-02-04T05:32:10;7.00;99.90
24162;DHT22;12318;51.262;7.066;2023-02-04T05:34:36;6.90;99.90
24162;DHT22;12318;51.262;7.066;2023-02-04T05:37:02;7.00;99.90
24162;DHT22;12318;51.262;7.066;2023-02-04T05:39:28;7.00;99.90
24162;DHT22;12318;51.262;7.066;2023-02-04T05:41:53;7.00;99.90
24162;DHT22;12318;51.262;7.066;2023-02-04T05:44:19;7.00;99.90
24162;DHT22;12318;51.262;7.066;2023-02-04T05:46:45;7.00;99.90
24162;DHT22;12318;51.262;7.066;2023-02-04T05:49:11;7.00;99.90
24162;DHT22;12318;51.262;7.066;2023-02-04T05:51:36;7.00;99.90
24162;DHT22;12318;51.262;7.066;2023-02-04T05:54:02;7.00;99.90
24162;DHT22;12318;51.262;7.066;2023-02-04T05:56:28;7.00;99.90
24162;DHT22;12318;51.262;7.066;2023-02-04T05:58:54;6.90;99.90
24162;DHT22;12318;51.262;7.066;2023-02-04T06:01:20;6.90;99.90
24162;DHT22;12318;51.262;7.066;2023-02-04T06:03:46;6.90;99.90
24162;DHT22;12318;51.262;7.066;2023-02-04T06:06:12;6.90;99.90
24162;DHT22;12318;51.262;7.066;2023-02-04T06:08:38;7.00;99.90
24162;DHT22;12318;51.262;7.066;2023-02-04T06:11:03;7.00;99.90
24162;DHT22;12318;51.262;7.066;2023-02-04T06:13:29;7.00;99.90
24162;DHT22;12318;51.262;7.066;2023-02-04T06:15:55;7.00;99.90
24162;DHT22;12318;51.262;7.066;2023-02-04T06:18:21;7.00;99.90
24162;DHT22;12318;51.262;7.066;2023-02-04T06:20:46;7.00;99.90
24162;DHT22;12318;51.262;7.066;2023-02-04T06:23:12;7.00;99.90
24162;DHT22;12318;51.262;7.066;2023-02-04T06:25:38;7.00;99.90
24162;DHT22;12318;51.262;7.066;2023-02-04T06:28:04;7.00;99.90
24162;DHT22;12318;51.262;7.066;2023-02-04T06:30:29;7.00;99.90
24162;DHT22;12318;51.262;7.066;2023-02-04T06:32:55;6.90;99.90
24162;DHT22;12318;51.262;7.066;2023-02-04T06:35:21;6.90;99.90
24162;DHT22;12318;51.262;7.066;2023-02-04T06:37:47;6.90;99.90
24162;DHT22;12318;51.262;7.066;2023-02-04T06:40:13;6.90;99.90
24162;DHT22;12318;51.262;7.066;2023-02-04T06:42:39;7.00;99.90
24162;DHT22;12318;51.262;7.066;2023-02-04T06:45:06;7.00;99.90
24162;DHT22;12318;51.262;7.066;2023-02-04T06:47:32;7.00;99.90
24162;DHT22;12318;51.262;7.066;2023-02-04T06:49:58;7.00;99.90
24162;DHT22;12318;51.262;7.066;2023-02-04T06:52:24;6.90;99.90
24162;DHT22;12318;51.262;7.066;2023-02-04T06:54:49;7.00;99.90
24162;DHT22;12318;51.262;7.066;2023-02-04T06:57:15;6.90;99.90
24162;DHT22;12318;51.262;7.066;2023-02-04T06:59:41;7.00;99.90
24162;DHT22;12318;51.262;7.066;2023-02-04T07:02:11;7.00;99.90
24162;DHT22;12318;51.262;7.066;2023-02-04T07:04:37;7.00;99.90
24162;DHT22;12318;51.262;7.066;2023-02-04T07:07:03;7.10;99.90
24162;DHT22;12318;51.262;7.066;2023-02-04T07:09:29;7.10;99.90
24162;DHT22;12318;51.262;7.066;2023-02-04T07:11:54;7.10;99.90
24162;DHT22;12318;51.262;7.066;2023-02-04T07:14:20;7.20;99.90
24162;DHT22;12318;51.262;7.066;2023-02-04T07:16:46;7.10;99.90
24162;DHT22;12318;51.262;7.066;2023-02-04T07:19:12;7.10;99.90
24162;DHT22;12318;51.262;7.066;2023-02-04T07:21:37;7.10;99.90
24162;DHT22;12318;51.262;7.066;2023-02-04T07:24:03;7.20;99.90
24162;DHT22;12318;51.262;7.066;2023-02-04T07:26:29;7.20;99.90
24162;DHT22;12318;51.262;7.066;2023-02-04T07:28:55;7.30;99.90
24162;DHT22;12318;51.262;7.066;2023-02-04T07:31:21;7.30;99.90
24162;DHT22;12318;51.262;7.066;2023-02-04T07:33:46;7.20;99.90
24162;DHT22;12318;51.262;7.066;2023-02-04T07:36:12;7.30;99.90
24162;DHT22;12318;51.262;7.066;2023-02-04T07:38:38;7.20;99.90
24162;DHT22;12318;51.262;7.066;2023-02-04T07:41:04;7.10;99.90
24162;DHT22;12318;51.262;7.066;2023-02-04T07:43:30;7.20;99.90
24162;DHT22;12318;51.262;7.066;2023-02-04T07:45:55;7.20;99.90
24162;DHT22;12318;51.262;7.066;2023-02-04T07:48:21;7.20;99.90
24162;DHT22;12318;51.262;7.066;2023-02-04T07:50:47;7.30;99.90
24162;DHT22;12318;51.262;7.066;2023-02-04T07:53:13;7.30;99.90
24162;DHT22;12318;51.262;7.066;2023-02-04T07:55:39;7.30;99.90
24162;DHT22;12318;51.262;7.066;2023-02-04T07:58:05;7.50;99.90
24162;DHT22;12318;51.262;7.066;2023-02-04T08:00:30;7.60;99.90
24162;DHT22;12318;51.262;7.066;2023-02-04T08:02:56;7.50;99.90
24162;DHT22;12318;51.262;7.066;2023-02-04T08:05:22;7.50;99.90
24162;DHT22;12318;51.262;7.066;2023-02-04T08:07:48;7.60;99.90
24162;DHT22;12318;51.262;7.066;2023-02-04T08:10:13;7.50;99.90
24162;DHT22;12318;51.262;7.066;2023-02-04T08:12:39;7.40;99.90
24162;DHT22;12318;51.262;7.066;2023-02-04T08:15:08;7.40;99.90
24162;DHT22;12318;51.262;7.066;2023-02-04T08:17:34;7.50;99.90
24162;DHT22;12318;51.262;7.066;2023-02-04T08:20:00;7.60;99.90
24162;DHT22;12318;51.262;7.066;2023-02-04T08:22:26;7.40;99.90
24162;DHT22;12318;51.262;7.066;2023-02-04T08:24:51;7.40;99.90
24162;DHT22;12318;51.262;7.066;2023-02-04T08:27:17;7.30;99.90
24162;DHT22;12318;51.262;7.066;2023-02-04T08:29:43;7.40;99.90
24162;DHT22;12318;51.262;7.066;2023-02-04T08:32:09;7.40;99.90
24162;DHT22;12318;51.262;7.066;2023-02-04T08:34:35;7.40;99.90
24162;DHT22;12318;51.262;7.066;2023-02-04T08:37:01;7.50;99.90
24162;DHT22;12318;51.262;7.066;2023-02-04T08:39:27;7.40;99.90
24162;DHT22;12318;51.262;7.066;2023-02-04T08:41:53;7.50;99.90
24162;DHT22;12318;51.262;7.066;2023-02-04T08:44:19;7.50;99.90
24162;DHT22;12318;51.262;7.066;2023-02-04T08:46:45;7.50;99.90
24162;DHT22;12318;51.262;7.066;2023-02-04T08:49:11;7.60;99.90
24162;DHT22;12318;51.262;7.066;2023-02-04T08:51:36;7.40;99.90
24162;DHT22;12318;51.262;7.066;2023-02-04T08:54:02;7.30;99.90
24162;DHT22;12318;51.262;7.066;2023-02-04T08:56:28;7.40;99.90
24162;DHT22;12318;51.262;7.066;2023-02-04T08:58:53;7.50;99.90
24162;DHT22;12318;51.262;7.066;2023-02-04T09:01:19;7.60;99.90
24162;DHT22;12318;51.262;7.066;2023-02-04T09:03:45;7.50;99.90
24162;DHT22;12318;51.262;7.066;2023-02-04T09:06:11;7.60;99.90
24162;DHT22;12318;51.262;7.066;2023-02-04T09:08:37;7.60;99.90
24162;DHT22;12318;51.262;7.066;2023-02-04T09:11:03;7.60;99.90
24162;DHT22;12318;51.262;7.066;2023-02-04T09:13:29;7.60;99.90
24162;DHT22;12318;51.262;7.066;2023-02-04T09:15:55;7.60;99.90
24162;DHT22;12318;51.262;7.066;2023-02-04T09:18:21;7.70;99.90
24162;DHT22;12318;51.262;7.066;2023-02-04T09:20:49;7.80;99.90
24162;DHT22;12318;51.262;7.066;2023-02-04T09:23:16;7.80;99.90
24162;DHT22;12318;51.262;7.066;2023-02-04T09:25:43;7.70;99.90
24162;DHT22;12318;51.262;7.066;2023-02-04T09:28:10;7.70;99.90
24162;DHT22;12318;51.262;7.066;2023-02-04T09:30:41;7.70;99.90
24162;DHT22;12318;51.262;7.066;2023-02-04T09:33:08;7.70;99.90
24162;DHT22;12318;51.262;7.066;2023-02-04T09:35:34;7.60;99.90
24162;DHT22;12318;51.262;7.066;2023-02-04T09:38:00;7.50;99.90
24162;DHT22;12318;51.262;7.066;2023-02-04T09:40:27;7.60;99.90
24162;DHT22;12318;51.262;7.066;2023-02-04T09:42:54;7.60;99.90
24162;DHT22;12318;51.262;7.066;2023-02-04T09:45:30;7.50;99.90
24162;DHT22;12318;51.262;7.066;2023-02-04T09:47:58;7.70;99.90
24162;DHT22;12318;51.262;7.066;2023-02-04T09:50:26;7.80;99.90
24162;DHT22;12318;51.262;7.066;2023-02-04T09:52:55;7.80;99.90
24162;DHT22;12318;51.262;7.066;2023-02-04T09:55:27;7.90;99.90
24162;DHT22;12318;51.262;7.066;2023-02-04T09:57:54;7.80;99.90
24162;DHT22;12318;51.262;7.066;2023-02-04T10:00:23;7.90;99.90
24162;DHT22;12318;51.262;7.066;2023-02-04T10:02:49;8.00;99.90
24162;DHT22;12318;51.262;7.066;2023-02-04T10:05:18;8.20;99.90
24162;DHT22;12318;51.262;7.066;2023-02-04T10:07:45;8.30;99.90
24162;DHT22;12318;51.262;7.066;2023-02-04T10:10:19;8.30;99.90
24162;DHT22;12318;51.262;7.066;2023-02-04T10:12:49;8.40;99.90
24162;DHT22;12318;51.262;7.066;2023-02-04T10:15:17;8.50;99.90
24162;DHT22;12318;51.262;7.066;2023-02-04T10:17:48;8.50;99.90
24162;DHT22;12318;51.262;7.066;2023-02-04T10:20:17;8.40;99.90
24162;DHT22;12318;51.262;7.066;2023-02-04T10:22:45;8.40;99.90
24162;DHT22;12318;51.262;7.066;2023-02-04T10:25:16;8.40;99.90
24162;DHT22;12318;51.262;7.066;2023-02-04T10:27:55;8.40;99.90
24162;DHT22;12318;51.262;7.066;2023-02-04T10:30:31;8.40;99.90
24162;DHT22;12318;51.262;7.066;2023-02-04T10:32:59;8.50;99.90
24162;DHT22;12318;51.262;7.066;2023-02-04T10:35:25;8.40;99.90
24162;DHT22;12318;51.262;7.066;2023-02-04T10:38:05;8.50;99.90
24162;DHT22;12318;51.262;7.066;2023-02-04T10:40:33;8.30;99.90
24162;DHT22;12318;51.262;7.066;2023-02-04T10:43:09;8.50;99.90
24162;DHT22;12318;51.262;7.066;2023-02-04T10:45:35;8.60;99.90
24162;DHT22;12318;51.262;7.066;2023-02-04T10:48:02;8.50;99.90
24162;DHT22;12318;51.262;7.066;2023-02-04T10:50:29;8.30;99.90
24162;DHT22;12318;51.262;7.066;2023-02-04T10:52:57;8.40;99.90
24162;DHT22;12318;51.262;7.066;2023-02-04T10:55:50;8.50;99.90
24162;DHT22;12318;51.262;7.066;2023-02-04T10:58:19;8.70;99.90
24162;DHT22;12318;51.262;7.066;2023-02-04T11:00:48;8.60;99.90
24162;DHT22;12318;51.262;7.066;2023-02-04T11:03:25;8.80;99.90
24162;DHT22;12318;51.262;7.066;2023-02-04T11:05:51;8.80;99.90
24162;DHT22;12318;51.262;7.066;2023-02-04T11:08:32;8.90;99.90
24162;DHT22;12318;51.262;7.066;2023-02-04T11:11:07;8.70;99.90
24162;DHT22;12318;51.262;7.066;2023-02-04T11:13:43;8.80;99.90
24162;DHT22;12318;51.262;7.066;2023-02-04T11:16:29;8.80;99.90
24162;DHT22;12318;51.262;7.066;2023-02-04T11:19:05;8.80;99.90
24162;DHT22;12318;51.262;7.066;2023-02-04T11:26:40;8.80;99.90
24162;DHT22;12318;51.262;7.066;2023-02-04T11:29:23;8.70;99.90
24162;DHT22;12318;51.262;7.066;2023-02-04T11:39:40;8.90;99.90
24162;DHT22;12318;51.262;7.066;2023-02-04T11:42:31;8.90;99.90
24162;DHT22;12318;51.262;7.066;2023-02-04T11:47:57;9.10;99.90
24162;DHT22;12318;51.262;7.066;2023-02-04T11:50:28;9.10;99.90
24162;DHT22;12318;51.262;7.066;2023-02-04T11:52:56;9.00;99.90
24162;DHT22;12318;51.262;7.066;2023-02-04T11:55:22;8.90;99.90
24162;DHT22;12318;51.262;7.066;2023-02-04T11:57:51;8.90;99.90
24162;DHT22;12318;51.262;7.066;2023-02-04T12:00:20;8.90;99.90
24162;DHT22;12318;51.262;7.066;2023-02-04T12:02:49;8.90;99.90
24162;DHT22;12318;51.262;7.066;2023-02-04T12:05:17;9.00;99.90
24162;DHT22;12318;51.262;7.066;2023-02-04T12:07:44;9.10;99.90
24162;DHT22;12318;51.262;7.066;2023-02-04T12:12:54;9.20;99.90
24162;DHT22;12318;51.262;7.066;2023-02-04T12:15:23;9.10;99.90
24162;DHT22;12318;51.262;7.066;2023-02-04T12:18:09;9.20;99.90
24162;DHT22;12318;51.262;7.066;2023-02-04T12:20:37;9.10;99.90
24162;DHT22;12318;51.262;7.066;2023-02-04T12:23:03;9.20;99.90
24162;DHT22;12318;51.262;7.066;2023-02-04T12:25:29;9.00;99.90
24162;DHT22;12318;51.262;7.066;2023-02-04T12:27:55;9.10;99.90
24162;DHT22;12318;51.262;7.066;2023-02-04T12:30:22;8.90;99.90
24162;DHT22;12318;51.262;7.066;2023-02-04T12:32:48;8.90;99.90
24162;DHT22;12318;51.262;7.066;2023-02-04T12:35:14;8.70;99.90
24162;DHT22;12318;51.262;7.066;2023-02-04T12:37:40;8.80;99.90
24162;DHT22;12318;51.262;7.066;2023-02-04T12:40:06;8.90;99.90
24162;DHT22;12318;51.262;7.066;2023-02-04T12:42:35;9.10;99.90
24162;DHT22;12318;51.262;7.066;2023-02-04T12:45:01;9.10;99.90
24162;DHT22;12318;51.262;7.066;2023-02-04T12:47:26;9.20;99.90
24162;DHT22;12318;51.262;7.066;2023-02-04T12:49:52;9.30;99.90
24162;DHT22;12318;51.262;7.066;2023-02-04T12:52:18;9.30;99.90
24162;DHT22;12318;51.262;7.066;2023-02-04T12:54:43;9.40;99.90
24162;DHT22;12318;51.262;7.066;2023-02-04T12:57:09;9.30;99.90
24162;DHT22;12318;51.262;7.066;2023-02-04T12:59:36;9.40;99.90
24162;DHT22;12318;51.262;7.066;2023-02-04T13:02:02;9.40;99.90
24162;DHT22;12318;51.262;7.066;2023-02-04T13:04:28;9.40;99.90
24162;DHT22;12318;51.262;7.066;2023-02-04T13:06:54;9.10;99.90
24162;DHT22;12318;51.262;7.066;2023-02-04T13:09:19;9.00;99.90
24162;DHT22;12318;51.262;7.066;2023-02-04T13:11:45;9.10;99.90
24162;DHT22;12318;51.262;7.066;2023-02-04T13:14:11;9.00;99.90
24162;DHT22;12318;51.262;7.066;2023-02-04T13:16:36;8.90;99.90
24162;DHT22;12318;51.262;7.066;2023-02-04T13:19:02;9.10;99.90
24162;DHT22;12318;51.262;7.066;2023-02-04T13:21:28;9.20;99.90
24162;DHT22;12318;51.262;7.066;2023-02-04T13:23:54;9.20;99.90
24162;DHT22;12318;51.262;7.066;2023-02-04T13:26:19;9.20;99.90
24162;DHT22;12318;51.262;7.066;2023-02-04T13:28:45;9.20;99.90
24162;DHT22;12318;51.262;7.066;2023-02-04T13:31:11;9.00;99.90
24162;DHT22;12318;51.262;7.066;2023-02-04T13:33:37;9.10;99.90
24162;DHT22;12318;51.262;7.066;2023-02-04T13:36:03;9.30;99.90
24162;DHT22;12318;51.262;7.066;2023-02-04T13:38:29;9.20;99.90
24162;DHT22;12318;51.262;7.066;2023-02-04T13:40:55;9.40;99.90
24162;DHT22;12318;51.262;7.066;2023-02-04T13:43:21;9.40;99.90
24162;DHT22;12318;51.262;7.066;2023-02-04T13:45:48;9.60;99.90
24162;DHT22;12318;51.262;7.066;2023-02-04T13:48:14;9.80;99.90
24162;DHT22;12318;51.262;7.066;2023-02-04T13:50:40;10.00;99.90
24162;DHT22;12318;51.262;7.066;2023-02-04T13:53:06;10.20;99.90
24162;DHT22;12318;51.262;7.066;2023-02-04T13:55:33;10.20;99.90
24162;DHT22;12318;51.262;7.066;2023-02-04T13:57:58;10.20;99.90
24162;DHT22;12318;51.262;7.066;2023-02-04T14:00:24;10.10;99.90
24162;DHT22;12318;51.262;7.066;2023-02-04T14:02:50;9.90;99.90
24162;DHT22;12318;51.262;7.066;2023-02-04T14:05:16;9.80;99.90
24162;DHT22;12318;51.262;7.066;2023-02-04T14:07:41;10.00;99.90
24162;DHT22;12318;51.262;7.066;2023-02-04T14:10:07;10.10;99.90
24162;DHT22;12318;51.262;7.066;2023-02-04T14:12:33;10.10;99.90
24162;DHT22;12318;51.262;7.066;2023-02-04T14:14:59;10.10;99.90
24162;DHT22;12318;51.262;7.066;2023-02-04T14:17:25;10.20;99.90
24162;DHT22;12318;51.262;7.066;2023-02-04T14:19:50;10.10;99.90
24162;DHT22;12318;51.262;7.066;2023-02-04T14:22:16;9.90;99.90
24162;DHT22;12318;51.262;7.066;2023-02-04T14:24:42;9.70;99.90
24162;DHT22;12318;51.262;7.066;2023-02-04T14:27:09;9.60;99.90
24162;DHT22;12318;51.262;7.066;2023-02-04T14:29:35;9.40;99.90
24162;DHT22;12318;51.262;7.066;2023-02-04T14:32:00;9.30;99.90
24162;DHT22;12318;51.262;7.066;2023-02-04T14:34:26;9.20;99.90
24162;DHT22;12318;51.262;7.066;2023-02-04T14:36:52;9.20;99.90
24162;DHT22;12318;51.262;7.066;2023-02-04T14:39:18;9.30;99.90
24162;DHT22;12318;51.262;7.066;2023-02-04T14:41:44;9.30;99.90
24162;DHT22;12318;51.262;7.066;2023-02-04T14:44:10;9.30;99.90
24162;DHT22;12318;51.262;7.066;2023-02-04T14:46:35;9.30;99.90
24162;DHT22;12318;51.262;7.066;2023-02-04T14:49:01;9.40;99.90
24162;DHT22;12318;51.262;7.066;2023-02-04T14:51:27;9.20;99.90
24162;DHT22;12318;51.262;7.066;2023-02-04T14:53:53;9.20;99.90
24162;DHT22;12318;51.262;7.066;2023-02-04T14:56:19;9.10;99.90
24162;DHT22;12318;51.262;7.066;2023-02-04T14:58:45;9.20;99.90
24162;DHT22;12318;51.262;7.066;2023-02-04T15:01:11;9.10;99.90
24162;DHT22;12318;51.262;7.066;2023-02-04T15:03:37;9.10;99.90
24162;DHT22;12318;51.262;7.066;2023-02-04T15:06:03;9.10;99.90
24162;DHT22;12318;51.262;7.066;2023-02-04T15:08:29;9.10;99.90
24162;DHT22;12318;51.262;7.066;2023-02-04T15:10:55;9.20;99.90
24162;DHT22;12318;51.262;7.066;2023-02-04T15:13:20;9.00;99.90
24162;DHT22;12318;51.262;7.066;2023-02-04T15:15:46;9.10;99.90
24162;DHT22;12318;51.262;7.066;2023-02-04T15:18:12;9.00;99.90
24162;DHT22;12318;51.262;7.066;2023-02-04T15:20:37;8.90;99.90
24162;DHT22;12318;51.262;7.066;2023-02-04T15:23:03;9.00;99.90
24162;DHT22;12318;51.262;7.066;2023-02-04T15:25:29;9.00;99.90
24162;DHT22;12318;51.262;7.066;2023-02-04T15:27:55;9.00;99.90
24162;DHT22;12318;51.262;7.066;2023-02-04T15:30:20;8.90;99.90
24162;DHT22;12318;51.262;7.066;2023-02-04T15:32:46;8.90;99.90
24162;DHT22;12318;51.262;7.066;2023-02-04T15:35:12;8.90;99.90
24162;DHT22;12318;51.262;7.066;2023-02-04T15:37:38;8.80;99.90
24162;DHT22;12318;51.262;7.066;2023-02-04T15:40:05;8.70;99.90
24162;DHT22;12318;51.262;7.066;2023-02-04T15:42:30;8.80;99.90
24162;DHT22;12318;51.262;7.066;2023-02-04T15:44:57;8.80;99.90
24162;DHT22;12318;51.262;7.066;2023-02-04T15:47:23;8.90;99.90
24162;DHT22;12318;51.262;7.066;2023-02-04T15:49:49;9.00;99.90
24162;DHT22;12318;51.262;7.066;2023-02-04T15:52:14;8.90;99.90
24162;DHT22;12318;51.262;7.066;2023-02-04T15:54:40;8.90;99.90
24162;DHT22;12318;51.262;7.066;2023-02-04T15:57:06;8.80;99.90
24162;DHT22;12318;51.262;7.066;2023-02-04T15:59:31;8.90;99.90
24162;DHT22;12318;51.262;7.066;2023-02-04T16:01:57;8.80;99.90
24162;DHT22;12318;51.262;7.066;2023-02-04T16:04:23;8.80;99.90